This is the latest recevied weather packets stored in our database for station/object EA7JCM-13. If no packets are shown the sender has not sent any weather packets the latest 1 day(s).
| Time | Temp. | Humidity | Pressure | Rain* | Wind** | Luminosity | Snow |
|---|---|---|---|---|---|---|---|
| 1778106904 | 16.67° C | 42% | 1006.7 hPa | 0 mm | - | - | - |
| 1778103304 | 16.67° C | 41% | 1006.7 hPa | 0 mm | - | - | - |
| 1778100304 | 16.67° C | 41% | 1006.4 hPa | 0 mm | - | - | - |
| 1778098504 | 17.22° C | 40% | 1006.2 hPa | 0 mm | - | - | - |
| 1778095802 | 18.89° C | 32% | 1005.6 hPa | 0 mm | - | - | - |
| 1778094302 | 19.44° C | 29% | 1005.6 hPa | 0 mm | - | - | - |
| 1778091002 | 20.56° C | 29% | 1005.5 hPa | 0 mm | - | - | - |
| 1778090702 | 20.56° C | 29% | 1005.5 hPa | 0 mm | - | - | - |
| 1778090102 | 20.56° C | 27% | 1005.7 hPa | 0 mm | - | - | - |
| 1778088002 | 20.56° C | 31% | 1006 hPa | 0 mm | - | - | - |
| 1778086202 | 21.11° C | 31% | 1005.9 hPa | 0 mm | - | - | - |
| 1778085302 | 21.11° C | 31% | 1006.1 hPa | 0 mm | - | - | - |
| 1778083802 | 21.11° C | 31% | 1006.1 hPa | 0 mm | - | - | - |
| 1778083502 | 21.11° C | 32% | 1006 hPa | 0 mm | - | - | - |
| 1778082902 | 20.56° C | 32% | 1006.1 hPa | 0 mm | - | - | - |
| 1778082002 | 22.22° C | 31% | 1006.2 hPa | 0 mm | - | - | - |
| 1778080803 | 20.56° C | 32% | 1006.2 hPa | 0 mm | - | - | - |
| 1778079902 | 21.67° C | 32% | 1006.3 hPa | 0 mm | - | - | - |
| 1778077202 | 21.11° C | 33% | 1007 hPa | 0 mm | - | - | - |
| 1778074802 | 21.67° C | 31% | 1007.2 hPa | 0 mm | - | - | - |
| 1778073002 | 21.11° C | 34% | 1007.4 hPa | 0 mm | - | - | - |
| 1778072102 | 20.56° C | 34% | 1007.5 hPa | 0 mm | - | - | - |
| 1778071502 | 21.11° C | 35% | 1007.5 hPa | 0 mm | - | - | - |
| 1778070303 | 20.56° C | 35% | 1007.8 hPa | 0 mm | - | - | - |
| 1778069702 | 21.11° C | 36% | 1007.8 hPa | 0 mm | - | - | - |
* Rain latest hour (hover to see other rain measurements)
** Current wind speed in m/s (hover to see current wind gust speed)